createdAt,value
2023-01-01T00:00:02.427Z,9.00
2023-01-01T00:01:02.765Z,9.00
2023-01-01T00:02:02.969Z,9.60
2023-01-01T00:03:02.350Z,9.60
2023-01-01T00:04:02.872Z,9.60
2023-01-01T00:05:02.960Z,9.60
2023-01-01T00:06:02.797Z,9.60
2023-01-01T00:07:03.091Z,8.10
2023-01-01T00:08:05.041Z,8.10
2023-01-01T00:09:03.378Z,8.10
2023-01-01T00:10:03.278Z,8.10
2023-01-01T00:11:03.119Z,8.10
2023-01-01T00:12:03.109Z,7.40
2023-01-01T00:13:03.429Z,7.40
2023-01-01T00:14:08.288Z,7.40
2023-01-01T00:15:03.531Z,7.40
2023-01-01T00:16:03.403Z,7.40
2023-01-01T00:17:02.420Z,6.70
2023-01-01T00:18:02.333Z,6.70
2023-01-01T00:19:02.578Z,6.70
2023-01-01T00:20:02.605Z,6.70
2023-01-01T00:21:02.794Z,6.70
2023-01-01T00:22:27.904Z,6.00
2023-01-01T00:23:02.862Z,6.00
2023-01-01T00:24:02.885Z,6.00
2023-01-01T00:25:02.910Z,6.00
2023-01-01T00:26:02.843Z,6.00
2023-01-01T00:27:02.455Z,5.50
2023-01-01T00:28:02.350Z,5.50
2023-01-01T00:29:02.631Z,5.50
2023-01-01T00:30:02.992Z,5.50
2023-01-01T00:31:03.014Z,5.50
2023-01-01T00:32:03.001Z,4.80
2023-01-01T00:33:02.825Z,4.80
2023-01-01T00:34:02.958Z,4.80
2023-01-01T00:35:03.119Z,4.80
2023-01-01T00:36:03.098Z,4.80
2023-01-01T00:37:03.113Z,4.20
2023-01-01T00:38:03.121Z,4.20
2023-01-01T00:39:03.421Z,4.20
2023-01-01T00:40:03.446Z,4.20
2023-01-01T00:41:03.943Z,4.20
2023-01-01T00:42:02.579Z,3.90
2023-01-01T00:43:02.684Z,3.90
2023-01-01T00:44:03.147Z,3.90
2023-01-01T00:45:02.790Z,3.90
2023-01-01T00:46:02.882Z,3.90
2023-01-01T00:47:02.815Z,4.40
2023-01-01T00:48:03.139Z,4.40
2023-01-01T00:49:02.725Z,4.40
2023-01-01T00:50:02.901Z,4.40
2023-01-01T00:51:03.108Z,4.40
2023-01-01T00:52:03.070Z,4.40
2023-01-01T00:53:02.879Z,4.40
2023-01-01T00:54:02.844Z,4.40
2023-01-01T00:55:03.370Z,4.40
2023-01-01T00:56:02.983Z,4.40
2023-01-01T00:57:03.203Z,4.00
2023-01-01T00:58:03.024Z,4.00
2023-01-01T00:59:03.497Z,4.00
2023-01-01T01:00:03.055Z,4.00
2023-01-01T01:01:03.199Z,4.00
2023-01-01T01:02:03.020Z,3.50
2023-01-01T01:03:02.584Z,3.50
2023-01-01T01:04:02.411Z,3.50
2023-01-01T01:05:02.537Z,3.50
2023-01-01T01:06:02.822Z,3.50
2023-01-01T01:07:02.320Z,3.40
2023-01-01T01:08:02.895Z,3.40
2023-01-01T01:09:02.430Z,3.40
2023-01-01T01:10:02.670Z,3.40
2023-01-01T01:11:02.328Z,3.40
2023-01-01T01:12:17.672Z,3.20
2023-01-01T01:13:02.707Z,3.20
2023-01-01T01:14:03.387Z,3.20
2023-01-01T01:15:02.988Z,3.20
2023-01-01T01:16:03.169Z,3.20
2023-01-01T01:17:02.920Z,3.50
2023-01-01T01:18:03.580Z,3.50
2023-01-01T01:19:03.697Z,3.50
2023-01-01T01:20:03.483Z,3.50
2023-01-01T01:21:03.529Z,3.50
2023-01-01T01:22:02.299Z,3.00
2023-01-01T01:23:01.968Z,3.00
2023-01-01T01:24:02.529Z,3.00
2023-01-01T01:25:02.253Z,3.00
2023-01-01T01:26:02.302Z,3.00
2023-01-01T01:27:02.975Z,3.30
2023-01-01T01:28:02.949Z,3.30
2023-01-01T01:29:02.903Z,3.30
2023-01-01T01:30:03.227Z,3.30
2023-01-01T01:31:02.867Z,3.30
2023-01-01T01:32:02.936Z,2.80
2023-01-01T01:33:03.381Z,2.80
2023-01-01T01:34:03.315Z,2.80
2023-01-01T01:35:03.030Z,2.80
2023-01-01T01:36:03.041Z,2.80
2023-01-01T01:37:02.343Z,3.40
2023-01-01T01:38:02.316Z,3.40
2023-01-01T01:39:02.506Z,3.40
2023-01-01T01:40:02.304Z,3.40
2023-01-01T01:41:02.330Z,3.40
2023-01-01T01:42:02.602Z,3.40
2023-01-01T01:43:03.233Z,3.40
2023-01-01T01:44:03.241Z,3.40
2023-01-01T01:45:02.902Z,3.40
2023-01-01T01:46:02.832Z,3.40
2023-01-01T01:47:02.659Z,2.80
2023-01-01T01:48:02.677Z,2.80
2023-01-01T01:49:02.476Z,2.80
2023-01-01T01:50:02.587Z,2.80
2023-01-01T01:51:02.844Z,2.80
2023-01-01T01:52:02.928Z,2.90
2023-01-01T01:53:03.017Z,2.90
2023-01-01T01:54:02.756Z,2.90
2023-01-01T01:55:02.648Z,2.90
2023-01-01T01:56:02.829Z,2.90
2023-01-01T01:57:03.182Z,3.00
2023-01-01T01:58:03.274Z,3.00
2023-01-01T01:59:03.367Z,3.00
2023-01-01T02:00:10.285Z,3.00
2023-01-01T02:01:03.048Z,3.00
2023-01-01T02:02:03.170Z,3.10
2023-01-01T02:03:03.333Z,3.10
2023-01-01T02:04:03.589Z,3.10
2023-01-01T02:05:03.220Z,3.10
2023-01-01T02:06:03.552Z,3.10
2023-01-01T02:07:02.965Z,2.70
2023-01-01T02:08:02.976Z,2.70
2023-01-01T02:09:03.132Z,2.70
2023-01-01T02:10:03.145Z,2.70
2023-01-01T02:11:03.399Z,2.70
2023-01-01T02:12:02.838Z,2.60
2023-01-01T02:13:02.304Z,2.60
2023-01-01T02:14:02.276Z,2.60
2023-01-01T02:15:02.851Z,2.60
2023-01-01T02:16:02.961Z,2.60
2023-01-01T02:17:03.386Z,2.70
2023-01-01T02:18:03.200Z,2.70
2023-01-01T02:19:03.369Z,2.70
2023-01-01T02:20:03.240Z,2.70
2023-01-01T02:21:03.232Z,2.70
2023-01-01T02:22:02.989Z,2.30
2023-01-01T02:23:04.603Z,2.30
2023-01-01T02:24:02.515Z,2.30
2023-01-01T02:25:02.880Z,2.30
2023-01-01T02:26:02.512Z,2.30
2023-01-01T02:27:03.255Z,2.20
2023-01-01T02:28:02.946Z,2.20
2023-01-01T02:29:03.072Z,2.20
2023-01-01T02:30:02.929Z,2.20
2023-01-01T02:31:02.898Z,2.20
2023-01-01T02:32:03.486Z,2.30
2023-01-01T02:33:03.740Z,2.30
2023-01-01T02:34:03.787Z,2.30
2023-01-01T02:35:03.475Z,2.30
2023-01-01T02:36:02.949Z,2.30
2023-01-01T02:37:03.582Z,2.40
2023-01-01T02:38:03.345Z,2.40
2023-01-01T02:39:03.654Z,2.40
2023-01-01T02:40:03.431Z,2.40
2023-01-01T02:41:03.390Z,2.40
2023-01-01T02:42:02.606Z,2.10
2023-01-01T02:43:03.140Z,2.10
2023-01-01T02:45:02.705Z,2.10
2023-01-01T02:46:03.004Z,2.10
2023-01-01T02:47:03.496Z,2.40
2023-01-01T02:48:03.349Z,2.40
2023-01-01T02:49:09.910Z,2.40
2023-01-01T02:50:03.502Z,2.40
2023-01-01T02:51:03.274Z,2.40
2023-01-01T02:52:02.310Z,2.20
2023-01-01T02:53:02.789Z,2.20
2023-01-01T02:54:02.599Z,2.20
2023-01-01T02:55:02.600Z,2.20
2023-01-01T02:56:02.315Z,2.20
2023-01-01T02:57:03.371Z,2.30
2023-01-01T02:58:03.180Z,2.30
2023-01-01T02:59:03.147Z,2.30
2023-01-01T03:00:02.865Z,2.30
2023-01-01T03:01:03.220Z,2.30
2023-01-01T03:02:02.291Z,2.30
2023-01-01T03:03:02.411Z,2.30
2023-01-01T03:04:02.204Z,2.30
2023-01-01T03:05:02.769Z,2.30
2023-01-01T03:06:03.089Z,2.30
2023-01-01T03:07:02.871Z,2.40
2023-01-01T03:08:02.498Z,2.40
2023-01-01T03:09:02.364Z,2.40
2023-01-01T03:10:02.639Z,2.40
2023-01-01T03:11:02.962Z,2.40
2023-01-01T03:12:01.934Z,2.50
2023-01-01T03:13:01.831Z,2.50
2023-01-01T03:14:02.488Z,2.50
2023-01-01T03:15:02.281Z,2.50
2023-01-01T03:16:02.032Z,2.50
2023-01-01T03:17:02.554Z,2.30
2023-01-01T03:18:03.030Z,2.30
2023-01-01T03:19:02.894Z,2.30
2023-01-01T03:20:02.774Z,2.30
2023-01-01T03:21:02.945Z,2.30
2023-01-01T03:22:02.112Z,2.40
2023-01-01T03:23:02.244Z,2.40
2023-01-01T03:24:02.221Z,2.40
2023-01-01T03:25:02.351Z,2.40
2023-01-01T03:26:02.085Z,2.40
2023-01-01T03:27:02.419Z,2.10
2023-01-01T03:28:02.181Z,2.10
2023-01-01T03:29:02.427Z,2.10
2023-01-01T03:30:02.326Z,2.10
2023-01-01T03:31:02.283Z,2.10
2023-01-01T03:32:02.663Z,2.40
2023-01-01T03:33:02.302Z,2.40
2023-01-01T03:34:02.315Z,2.40
2023-01-01T03:35:02.805Z,2.40
2023-01-01T03:36:02.963Z,2.40
2023-01-01T03:37:02.686Z,2.20
2023-01-01T03:38:02.671Z,2.20
2023-01-01T03:39:02.634Z,2.20
2023-01-01T03:40:02.588Z,2.20
2023-01-01T03:41:02.989Z,2.20
2023-01-01T03:42:01.983Z,2.10
2023-01-01T03:43:02.158Z,2.10
2023-01-01T03:44:02.444Z,2.10
2023-01-01T03:45:02.138Z,2.10
2023-01-01T03:46:02.006Z,2.10
2023-01-01T03:47:03.034Z,2.00
2023-01-01T03:48:02.819Z,2.00
2023-01-01T03:49:04.440Z,2.00
2023-01-01T03:50:02.567Z,2.00
2023-01-01T03:51:02.954Z,2.00
2023-01-01T03:52:02.618Z,2.10
2023-01-01T03:53:02.331Z,2.10
2023-01-01T03:54:02.067Z,2.10
2023-01-01T03:55:02.495Z,2.10
2023-01-01T03:56:02.461Z,2.10
2023-01-01T03:57:02.489Z,2.10
2023-01-01T03:58:02.540Z,2.10
2023-01-01T03:59:02.439Z,2.10
2023-01-01T04:00:02.275Z,2.10
2023-01-01T04:01:02.329Z,2.10
2023-01-01T04:02:03.263Z,2.10
2023-01-01T04:03:03.532Z,2.10
2023-01-01T04:04:03.313Z,2.10
2023-01-01T04:05:03.347Z,2.10
2023-01-01T04:06:03.018Z,2.10
2023-01-01T04:07:14.834Z,2.20
2023-01-01T04:08:02.798Z,2.20
2023-01-01T04:09:02.917Z,2.20
2023-01-01T04:10:03.018Z,2.20
2023-01-01T04:11:02.912Z,2.20
2023-01-01T04:12:03.192Z,6.20
2023-01-01T04:13:02.721Z,6.20
2023-01-01T04:14:03.186Z,6.20
2023-01-01T04:15:02.639Z,6.20
2023-01-01T04:16:03.270Z,6.20
2023-01-01T04:17:02.492Z,2.10
2023-01-01T04:18:02.793Z,2.10
2023-01-01T04:19:02.657Z,2.10
2023-01-01T04:20:02.744Z,2.10
2023-01-01T04:21:02.384Z,2.10
2023-01-01T04:22:03.039Z,2.40
2023-01-01T04:23:02.717Z,2.40
2023-01-01T04:24:03.248Z,2.40
2023-01-01T04:25:02.913Z,2.40
2023-01-01T04:26:03.222Z,2.40
2023-01-01T04:27:02.446Z,2.30
2023-01-01T04:28:02.555Z,2.30
2023-01-01T04:29:02.869Z,2.30
2023-01-01T04:30:02.899Z,2.30
2023-01-01T04:31:02.337Z,2.30
2023-01-01T04:32:03.383Z,2.30
2023-01-01T04:33:03.433Z,2.30
2023-01-01T04:34:03.073Z,2.30
2023-01-01T04:35:03.518Z,2.30
2023-01-01T04:36:03.030Z,2.30
2023-01-01T04:37:05.838Z,2.00
2023-01-01T04:38:02.917Z,2.00
2023-01-01T04:39:02.961Z,2.00
2023-01-01T04:40:02.701Z,2.00
2023-01-01T04:41:02.414Z,2.00
2023-01-01T04:42:03.344Z,2.20
2023-01-01T04:43:03.424Z,2.20
2023-01-01T04:44:02.859Z,2.20
2023-01-01T04:45:03.316Z,2.20
2023-01-01T04:46:03.120Z,2.20
2023-01-01T04:47:02.871Z,1.90
2023-01-01T04:48:02.577Z,1.90
2023-01-01T04:49:02.685Z,1.90
2023-01-01T04:50:02.349Z,1.90
2023-01-01T04:51:03.008Z,1.90
2023-01-01T04:52:03.627Z,2.20
2023-01-01T04:53:03.278Z,2.20
2023-01-01T04:54:03.003Z,2.20
2023-01-01T04:55:03.050Z,2.20
2023-01-01T04:56:03.005Z,2.20
2023-01-01T04:57:02.709Z,2.00
2023-01-01T04:58:02.293Z,2.00
2023-01-01T04:59:02.323Z,2.00
2023-01-01T05:00:02.204Z,2.00
2023-01-01T05:01:02.232Z,2.00
2023-01-01T05:02:02.445Z,2.00
2023-01-01T05:03:02.764Z,2.00
2023-01-01T05:04:02.759Z,2.00
2023-01-01T05:05:02.658Z,2.00
2023-01-01T05:06:03.041Z,2.00
2023-01-01T05:07:02.871Z,2.20
2023-01-01T05:08:02.962Z,2.20
2023-01-01T05:09:03.329Z,2.20
2023-01-01T05:10:02.829Z,2.20
2023-01-01T05:11:03.439Z,2.20
2023-01-01T05:12:02.311Z,2.40
2023-01-01T05:13:02.701Z,2.40
2023-01-01T05:14:02.476Z,2.40
2023-01-01T05:15:02.533Z,2.40
2023-01-01T05:16:02.448Z,2.40
2023-01-01T05:17:02.459Z,2.30
2023-01-01T05:18:03.029Z,2.30
2023-01-01T05:19:02.524Z,2.30
2023-01-01T05:20:02.590Z,2.30
2023-01-01T05:21:02.410Z,2.30
2023-01-01T05:22:08.541Z,2.40
2023-01-01T05:23:02.098Z,2.40
2023-01-01T05:24:02.131Z,2.40
2023-01-01T05:25:02.681Z,2.40
2023-01-01T05:26:02.336Z,2.40
2023-01-01T05:27:02.764Z,2.50
2023-01-01T05:28:02.249Z,2.50
2023-01-01T05:29:02.717Z,2.50
2023-01-01T05:30:02.522Z,2.50
2023-01-01T05:31:02.353Z,2.50
2023-01-01T05:32:02.779Z,2.30
2023-01-01T05:33:02.683Z,2.30
2023-01-01T05:35:02.713Z,2.30
2023-01-01T05:36:03.026Z,2.30
2023-01-01T05:37:02.969Z,2.10
2023-01-01T05:38:03.567Z,2.10
2023-01-01T05:39:03.189Z,2.10
2023-01-01T05:40:03.585Z,2.10
2023-01-01T05:41:03.281Z,2.10
2023-01-01T05:42:02.661Z,2.10
2023-01-01T05:43:02.920Z,2.10
2023-01-01T05:44:02.795Z,2.10
2023-01-01T05:45:02.995Z,2.10
2023-01-01T05:46:03.211Z,2.10
2023-01-01T05:47:02.970Z,2.40
2023-01-01T05:48:03.305Z,2.40
2023-01-01T05:49:02.861Z,2.40
2023-01-01T05:51:03.101Z,2.40
2023-01-01T05:52:02.278Z,2.40
2023-01-01T05:53:02.160Z,2.40
2023-01-01T05:54:02.098Z,2.40
2023-01-01T05:55:02.076Z,2.40
2023-01-01T05:56:03.110Z,2.40
2023-01-01T05:57:02.719Z,2.50
2023-01-01T05:58:03.274Z,2.50
2023-01-01T05:59:02.813Z,2.50
2023-01-01T06:00:02.848Z,2.50
2023-01-01T06:01:03.206Z,2.50
2023-01-01T06:02:03.308Z,2.00
2023-01-01T06:03:03.379Z,2.00
2023-01-01T06:04:03.169Z,2.00
2023-01-01T06:05:03.141Z,2.00
2023-01-01T06:06:03.285Z,2.00
2023-01-01T06:07:03.271Z,2.30
2023-01-01T06:08:03.456Z,2.30
2023-01-01T06:09:03.282Z,2.30
2023-01-01T06:10:03.593Z,2.30
2023-01-01T06:11:03.594Z,2.30
2023-01-01T06:12:03.078Z,2.20
2023-01-01T06:13:09.534Z,2.20
2023-01-01T06:14:03.185Z,2.20
2023-01-01T06:15:02.770Z,2.20
2023-01-01T06:16:03.228Z,2.20
2023-01-01T06:17:02.563Z,2.10
2023-01-01T06:18:03.307Z,2.10
2023-01-01T06:19:02.618Z,2.10
2023-01-01T06:20:02.466Z,2.10
2023-01-01T06:21:02.623Z,2.10
2023-01-01T06:22:03.530Z,2.40
2023-01-01T06:23:03.175Z,2.40
2023-01-01T06:24:02.990Z,2.40
2023-01-01T06:25:02.966Z,2.40
2023-01-01T06:26:03.129Z,2.40
2023-01-01T06:27:03.402Z,2.40
2023-01-01T06:28:03.218Z,2.40
2023-01-01T06:29:03.197Z,2.40
2023-01-01T06:30:03.128Z,2.40
2023-01-01T06:31:03.215Z,2.40
2023-01-01T06:32:02.390Z,2.10
2023-01-01T06:33:02.563Z,2.10
2023-01-01T06:34:02.427Z,2.10
2023-01-01T06:35:02.292Z,2.10
2023-01-01T06:36:02.472Z,2.10
2023-01-01T06:37:06.682Z,2.30
2023-01-01T06:38:02.802Z,2.30
2023-01-01T06:39:03.171Z,2.30
2023-01-01T06:40:02.964Z,2.30
2023-01-01T06:41:03.172Z,2.30
2023-01-01T06:42:03.164Z,2.50
2023-01-01T06:43:03.151Z,2.50
2023-01-01T06:44:03.256Z,2.50
2023-01-01T06:45:02.910Z,2.50
2023-01-01T06:46:03.926Z,2.50
2023-01-01T06:47:02.752Z,2.40
2023-01-01T06:48:02.714Z,2.40
2023-01-01T06:49:03.046Z,2.40
2023-01-01T06:50:02.539Z,2.40
2023-01-01T06:51:03.153Z,2.40
2023-01-01T06:52:03.092Z,2.70
2023-01-01T06:53:03.092Z,2.70
2023-01-01T06:54:03.024Z,2.70
2023-01-01T06:55:02.736Z,2.70
2023-01-01T06:56:03.160Z,2.70
2023-01-01T06:57:02.821Z,2.40
2023-01-01T06:58:03.370Z,2.40
2023-01-01T06:59:03.024Z,2.40
2023-01-01T07:00:02.925Z,2.40
2023-01-01T07:01:08.005Z,2.40
2023-01-01T07:02:02.523Z,2.50
2023-01-01T07:03:02.532Z,2.50
2023-01-01T07:04:01.916Z,2.50
2023-01-01T07:05:01.926Z,2.50
2023-01-01T07:06:02.349Z,2.50
2023-01-01T07:07:02.867Z,2.50
2023-01-01T07:08:02.772Z,2.50
2023-01-01T07:09:02.992Z,2.50
2023-01-01T07:10:02.622Z,2.50
2023-01-01T07:11:02.912Z,2.50
2023-01-01T07:12:03.410Z,2.30
2023-01-01T07:13:02.520Z,2.30
2023-01-01T07:14:02.465Z,2.30
2023-01-01T07:15:02.972Z,2.30
2023-01-01T07:16:06.921Z,2.30
2023-01-01T07:17:03.139Z,2.50
2023-01-01T07:18:02.961Z,2.50
2023-01-01T07:19:02.999Z,2.50
2023-01-01T07:20:02.956Z,2.50
2023-01-01T07:21:03.253Z,2.50
2023-01-01T07:22:02.258Z,2.90
2023-01-01T07:23:02.259Z,2.90
2023-01-01T07:24:02.484Z,2.90
2023-01-01T07:25:02.670Z,2.90
2023-01-01T07:26:02.719Z,2.90
2023-01-01T07:27:03.419Z,3.00
2023-01-01T07:28:02.987Z,3.00
2023-01-01T07:29:07.460Z,3.00
2023-01-01T07:30:02.639Z,3.00
2023-01-01T07:31:02.733Z,3.00
2023-01-01T07:32:03.269Z,3.60
2023-01-01T07:33:03.073Z,3.60
2023-01-01T07:34:03.037Z,3.60
2023-01-01T07:35:03.032Z,3.60
2023-01-01T07:36:03.198Z,3.60
2023-01-01T07:37:02.530Z,3.50
2023-01-01T07:38:02.542Z,3.50
2023-01-01T07:39:02.453Z,3.50
2023-01-01T07:40:02.431Z,3.50
2023-01-01T07:41:02.596Z,3.50
2023-01-01T07:42:09.166Z,2.80
2023-01-01T07:43:03.199Z,2.80
2023-01-01T07:44:02.917Z,2.80
2023-01-01T07:45:02.623Z,2.80
2023-01-01T07:46:03.286Z,2.80
2023-01-01T07:47:03.250Z,3.00
2023-01-01T07:48:02.993Z,3.00
2023-01-01T07:49:03.001Z,3.00
2023-01-01T07:50:03.579Z,3.00
2023-01-01T07:51:02.670Z,3.00
2023-01-01T07:52:01.987Z,2.70
2023-01-01T07:53:01.874Z,2.70
2023-01-01T07:54:06.543Z,2.70
2023-01-01T07:55:02.269Z,2.70
2023-01-01T07:56:02.043Z,2.70
2023-01-01T07:57:02.595Z,2.60
2023-01-01T07:58:02.312Z,2.60
2023-01-01T07:59:02.254Z,2.60
2023-01-01T08:00:02.148Z,2.60
2023-01-01T08:01:02.249Z,2.60
2023-01-01T08:02:02.984Z,2.70
2023-01-01T08:03:02.725Z,2.70
2023-01-01T08:04:02.221Z,2.70
2023-01-01T08:05:02.579Z,2.70
2023-01-01T08:06:02.534Z,2.70
2023-01-01T08:07:02.614Z,2.50
2023-01-01T08:08:02.733Z,2.50
2023-01-01T08:09:02.938Z,2.50
2023-01-01T08:10:02.995Z,2.50
2023-01-01T08:11:04.054Z,2.50
2023-01-01T08:12:02.159Z,2.60
2023-01-01T08:13:02.360Z,2.60
2023-01-01T08:14:02.360Z,2.60
2023-01-01T08:15:02.646Z,2.60
2023-01-01T08:16:02.241Z,2.60
2023-01-01T08:17:02.611Z,3.20
2023-01-01T08:18:02.717Z,3.20
2023-01-01T08:19:02.603Z,3.20
2023-01-01T08:20:02.730Z,3.20
2023-01-01T08:21:03.271Z,3.20
2023-01-01T08:22:02.168Z,3.00
2023-01-01T08:23:06.959Z,3.00
2023-01-01T08:24:02.184Z,3.00
2023-01-01T08:25:02.620Z,3.00
2023-01-01T08:26:02.221Z,3.00
2023-01-01T08:27:02.612Z,2.50
2023-01-01T08:28:02.936Z,2.50
2023-01-01T08:29:03.026Z,2.50
2023-01-01T08:30:02.524Z,2.50
2023-01-01T08:31:03.340Z,2.50
2023-01-01T08:32:02.807Z,2.50
2023-01-01T08:33:03.164Z,2.50
2023-01-01T08:34:03.254Z,2.50
2023-01-01T08:35:03.309Z,2.50
2023-01-01T08:36:03.247Z,2.50
2023-01-01T08:37:02.677Z,2.40
2023-01-01T08:38:02.845Z,2.40
2023-01-01T08:39:02.373Z,2.40
2023-01-01T08:40:02.697Z,2.40
2023-01-01T08:41:02.692Z,2.40
2023-01-01T08:42:05.780Z,2.60
2023-01-01T08:43:02.653Z,2.60
2023-01-01T08:44:03.007Z,2.60
2023-01-01T08:45:02.995Z,2.60
2023-01-01T08:46:02.557Z,2.60
2023-01-01T08:47:03.016Z,2.70
2023-01-01T08:48:03.441Z,2.70
2023-01-01T08:49:03.063Z,2.70
2023-01-01T08:50:02.891Z,2.70
2023-01-01T08:51:03.022Z,2.70
2023-01-01T08:52:02.587Z,2.60
2023-01-01T08:53:02.608Z,2.60
2023-01-01T08:54:02.432Z,2.60
2023-01-01T08:55:02.806Z,2.60
2023-01-01T08:56:02.724Z,2.60
2023-01-01T08:57:02.876Z,3.00
2023-01-01T08:58:03.061Z,3.00
2023-01-01T08:59:04.471Z,3.00
2023-01-01T09:00:02.938Z,3.00
2023-01-01T09:01:03.414Z,3.00
2023-01-01T09:02:02.579Z,2.90
2023-01-01T09:03:02.955Z,2.90
2023-01-01T09:04:02.387Z,2.90
2023-01-01T09:05:02.761Z,2.90
2023-01-01T09:06:02.743Z,2.90
2023-01-01T09:07:03.128Z,2.60
2023-01-01T09:08:03.296Z,2.60
2023-01-01T09:09:03.122Z,2.60
2023-01-01T09:10:03.231Z,2.60
2023-01-01T09:11:03.305Z,2.60
2023-01-01T09:12:02.234Z,2.50
2023-01-01T09:13:02.448Z,2.50
2023-01-01T09:14:02.447Z,2.50
2023-01-01T09:15:02.557Z,2.50
2023-01-01T09:16:02.623Z,2.50
2023-01-01T09:17:02.777Z,2.70
2023-01-01T09:18:02.757Z,2.70
2023-01-01T09:19:02.659Z,2.70
2023-01-01T09:20:02.638Z,2.70
2023-01-01T09:21:02.982Z,2.70
2023-01-01T09:22:02.330Z,2.60
2023-01-01T09:23:05.874Z,2.60
2023-01-01T09:24:02.559Z,2.60
2023-01-01T09:25:02.657Z,2.60
2023-01-01T09:26:02.189Z,2.60
2023-01-01T09:27:02.391Z,3.70
2023-01-01T09:28:02.292Z,3.70
2023-01-01T09:29:02.464Z,3.70
2023-01-01T09:30:02.658Z,3.70
2023-01-01T09:31:02.240Z,3.70
2023-01-01T09:32:03.317Z,3.20
2023-01-01T09:33:02.729Z,3.20
2023-01-01T09:34:02.796Z,3.20
2023-01-01T09:35:03.041Z,3.20
2023-01-01T09:36:03.326Z,3.20
2023-01-01T09:37:03.041Z,4.00
2023-01-01T09:38:02.520Z,4.00
2023-01-01T09:39:02.548Z,4.00
2023-01-01T09:40:02.693Z,4.00
2023-01-01T09:41:02.518Z,4.00
2023-01-01T09:42:02.699Z,3.40
2023-01-01T09:43:02.865Z,3.40
2023-01-01T09:44:02.354Z,3.40
2023-01-01T09:45:02.578Z,3.40
2023-01-01T09:46:02.561Z,3.40
2023-01-01T09:47:03.071Z,3.60
2023-01-01T09:48:03.197Z,3.60
2023-01-01T09:49:03.003Z,3.60
2023-01-01T09:50:03.146Z,3.60
2023-01-01T09:51:02.905Z,3.60
2023-01-01T09:52:02.581Z,2.70
2023-01-01T09:53:02.198Z,2.70
2023-01-01T09:54:02.625Z,2.70
2023-01-01T09:55:02.148Z,2.70
2023-01-01T09:56:02.366Z,2.70
2023-01-01T09:57:02.814Z,3.00
2023-01-01T09:58:02.957Z,3.00
2023-01-01T09:59:02.585Z,3.00
2023-01-01T10:00:02.387Z,3.00
2023-01-01T10:01:02.572Z,3.00
2023-01-01T10:02:03.012Z,2.50
2023-01-01T10:03:02.861Z,2.50
2023-01-01T10:04:02.652Z,2.50
2023-01-01T10:05:03.018Z,2.50
2023-01-01T10:06:03.352Z,2.50
2023-01-01T10:07:03.528Z,2.60
2023-01-01T10:08:03.629Z,2.60
2023-01-01T10:09:03.650Z,2.60
2023-01-01T10:10:03.255Z,2.60
2023-01-01T10:11:03.329Z,2.60
2023-01-01T10:12:03.348Z,3.30
2023-01-01T10:13:03.026Z,3.30
2023-01-01T10:14:02.888Z,3.30
2023-01-01T10:15:03.062Z,3.30
2023-01-01T10:16:03.991Z,3.30
2023-01-01T10:17:03.542Z,2.40
2023-01-01T10:18:03.486Z,2.40
2023-01-01T10:19:03.051Z,2.40
2023-01-01T10:20:03.135Z,2.40
2023-01-01T10:21:03.323Z,2.40
2023-01-01T10:22:03.169Z,2.00
2023-01-01T10:23:03.363Z,2.00
2023-01-01T10:24:02.824Z,2.00
2023-01-01T10:25:03.050Z,2.00
2023-01-01T10:26:03.349Z,2.00
2023-01-01T10:27:03.652Z,2.40
2023-01-01T10:28:03.245Z,2.40
2023-01-01T10:29:03.311Z,2.40
2023-01-01T10:30:04.657Z,2.40
2023-01-01T10:31:03.592Z,2.40
2023-01-01T10:32:03.358Z,3.00
2023-01-01T10:33:03.087Z,3.00
2023-01-01T10:34:03.131Z,3.00
2023-01-01T10:35:03.153Z,3.00
2023-01-01T10:36:03.156Z,3.00
2023-01-01T10:37:03.590Z,2.60
2023-01-01T10:38:03.547Z,2.60
2023-01-01T10:39:03.122Z,2.60
2023-01-01T10:40:03.062Z,2.60
2023-01-01T10:41:03.398Z,2.60
2023-01-01T10:42:02.315Z,4.10
2023-01-01T10:43:02.470Z,4.10
2023-01-01T10:44:02.667Z,4.10
2023-01-01T10:45:02.777Z,4.10
2023-01-01T10:46:03.383Z,4.10
2023-01-01T10:47:03.007Z,2.60
2023-01-01T10:48:03.182Z,2.60
2023-01-01T10:49:03.428Z,2.60
2023-01-01T10:50:03.034Z,2.60
2023-01-01T10:51:03.596Z,2.60
2023-01-01T10:52:03.391Z,2.80
2023-01-01T10:53:02.582Z,2.80
2023-01-01T10:54:03.004Z,2.80
2023-01-01T10:55:02.576Z,2.80
2023-01-01T10:56:02.486Z,2.80
2023-01-01T10:57:02.935Z,3.50
2023-01-01T10:58:03.110Z,3.50
2023-01-01T10:59:03.245Z,3.50
2023-01-01T11:00:03.609Z,3.50
2023-01-01T11:01:03.967Z,3.50
2023-01-01T11:02:03.931Z,4.10
2023-01-01T11:03:03.195Z,4.10
2023-01-01T11:04:03.530Z,4.10
2023-01-01T11:05:08.511Z,4.10
2023-01-01T11:06:03.402Z,4.10
2023-01-01T11:07:03.596Z,3.20
2023-01-01T11:08:03.506Z,3.20
2023-01-01T11:09:03.505Z,3.20
2023-01-01T11:10:04.869Z,3.20
2023-01-01T11:11:03.398Z,3.20
2023-01-01T11:12:09.402Z,3.40
2023-01-01T11:13:05.634Z,3.40
2023-01-01T11:14:03.207Z,3.40
2023-01-01T11:15:03.128Z,3.40
2023-01-01T11:16:03.393Z,3.40
2023-01-01T11:17:03.409Z,3.70
2023-01-01T11:18:03.639Z,3.70
2023-01-01T11:19:03.491Z,3.70
2023-01-01T11:20:03.676Z,3.70
2023-01-01T11:21:03.436Z,3.70
2023-01-01T11:22:03.215Z,2.80
2023-01-01T11:23:02.576Z,2.80
2023-01-01T11:24:02.945Z,2.80
2023-01-01T11:25:03.458Z,2.80
2023-01-01T11:26:02.567Z,2.80
2023-01-01T11:27:03.105Z,2.80
2023-01-01T11:28:03.084Z,2.80
2023-01-01T11:29:03.335Z,2.80
2023-01-01T11:30:02.754Z,2.80
2023-01-01T11:31:03.351Z,2.80
2023-01-01T11:32:02.756Z,2.80
2023-01-01T11:33:03.394Z,2.80
2023-01-01T11:34:03.508Z,2.80
2023-01-01T11:35:03.670Z,2.80
2023-01-01T11:36:03.540Z,2.80
2023-01-01T11:37:03.599Z,2.90
2023-01-01T11:38:03.529Z,2.90
2023-01-01T11:39:03.671Z,2.90
2023-01-01T11:40:03.812Z,2.90
2023-01-01T11:41:03.777Z,2.90
2023-01-01T11:42:03.607Z,2.10
2023-01-01T11:43:02.950Z,2.10
2023-01-01T11:44:03.383Z,2.10
2023-01-01T11:45:03.309Z,2.10
2023-01-01T11:46:03.466Z,2.10
2023-01-01T11:47:03.297Z,2.30
2023-01-01T11:48:03.172Z,2.30
2023-01-01T11:49:02.914Z,2.30
2023-01-01T11:50:02.626Z,2.30
2023-01-01T11:51:03.140Z,2.30
2023-01-01T11:52:03.504Z,2.50
2023-01-01T11:53:03.369Z,2.50
2023-01-01T11:54:03.397Z,2.50
2023-01-01T11:55:03.596Z,2.50
2023-01-01T11:56:03.580Z,2.50
2023-01-01T11:57:03.561Z,2.20
2023-01-01T11:58:02.963Z,2.20
2023-01-01T11:59:02.928Z,2.20
2023-01-01T12:00:03.097Z,2.20
2023-01-01T12:01:02.855Z,2.20
2023-01-01T12:02:02.920Z,2.40
2023-01-01T12:03:02.725Z,2.40
2023-01-01T12:04:02.646Z,2.40
2023-01-01T12:05:02.349Z,2.40
2023-01-01T12:06:02.668Z,2.40
2023-01-01T12:07:02.430Z,2.50
2023-01-01T12:08:02.512Z,2.50
2023-01-01T12:09:02.922Z,2.50
2023-01-01T12:10:02.653Z,2.50
2023-01-01T12:11:02.842Z,2.50
2023-01-01T12:12:02.608Z,2.40
2023-01-01T12:13:02.208Z,2.40
2023-01-01T12:14:02.396Z,2.40
2023-01-01T12:15:02.303Z,2.40
2023-01-01T12:16:02.225Z,2.40
2023-01-01T12:17:02.621Z,2.90
2023-01-01T12:18:03.305Z,2.90
2023-01-01T12:19:02.799Z,2.90
2023-01-01T12:20:02.721Z,2.90
2023-01-01T12:21:03.554Z,2.90
2023-01-01T12:22:02.932Z,3.10
2023-01-01T12:23:02.635Z,3.10
2023-01-01T12:24:02.131Z,3.10
2023-01-01T12:25:02.746Z,3.10
2023-01-01T12:26:02.575Z,3.10
2023-01-01T12:27:08.596Z,2.40
2023-01-01T12:28:03.056Z,2.40
2023-01-01T12:29:03.003Z,2.40
2023-01-01T12:30:03.129Z,2.40
2023-01-01T12:31:03.563Z,2.40
2023-01-01T12:32:03.181Z,2.40
2023-01-01T12:33:07.855Z,2.40
2023-01-01T12:34:02.489Z,2.40
2023-01-01T12:35:02.279Z,2.40
2023-01-01T12:36:02.698Z,2.40
2023-01-01T12:37:02.307Z,5.40
2023-01-01T12:38:02.529Z,5.40
2023-01-01T12:39:02.555Z,5.40
2023-01-01T12:40:03.765Z,5.40
2023-01-01T12:41:02.331Z,5.40
2023-01-01T12:42:02.766Z,5.20
2023-01-01T12:43:03.528Z,5.20
2023-01-01T12:44:02.743Z,5.20
2023-01-01T12:45:03.548Z,5.20
2023-01-01T12:46:03.216Z,5.20
2023-01-01T12:47:03.347Z,6.70
2023-01-01T12:48:03.104Z,6.70
2023-01-01T12:49:03.550Z,6.70
2023-01-01T12:50:03.448Z,6.70
2023-01-01T12:51:05.441Z,6.70
2023-01-01T12:52:03.319Z,6.30
2023-01-01T12:53:02.000Z,6.30
2023-01-01T12:54:02.038Z,6.30
2023-01-01T12:55:02.006Z,6.30
2023-01-01T12:56:01.930Z,6.30
2023-01-01T12:57:02.388Z,3.20
2023-01-01T12:58:02.734Z,3.20
2023-01-01T12:59:02.883Z,3.20
2023-01-01T13:00:02.729Z,3.20
2023-01-01T13:01:02.920Z,3.20
2023-01-01T13:02:03.154Z,5.20
2023-01-01T13:03:02.583Z,5.20
2023-01-01T13:04:02.292Z,5.20
2023-01-01T13:05:01.938Z,5.20
2023-01-01T13:06:02.782Z,5.20
2023-01-01T13:07:02.358Z,3.10
2023-01-01T13:08:02.893Z,3.10
2023-01-01T13:09:02.661Z,3.10
2023-01-01T13:10:02.897Z,3.10
2023-01-01T13:11:02.240Z,3.10
2023-01-01T13:12:02.553Z,5.20
2023-01-01T13:13:02.480Z,5.20
2023-01-01T13:14:02.586Z,5.20
2023-01-01T13:15:02.903Z,5.20
2023-01-01T13:16:02.657Z,5.20
2023-01-01T13:17:02.900Z,4.50
2023-01-01T13:18:01.805Z,4.50
2023-01-01T13:19:02.978Z,4.50
2023-01-01T13:20:02.292Z,4.50
2023-01-01T13:21:02.207Z,4.50